Time;durP1;ratioP1;P1;durP2;ratioP2;P2;SDS_P1;SDS_P2;PMS_P1;PMS_P2;Temp;Humidity;BMP_temperature;BMP_pressure;BME280_temperature;BME280_humidity;BME280_pressure;Samples;Min_cycle;Max_cycle;Signal;HPM_P1;HPM_P2
2021/06/24 00:01:37;;;;;;;;;11.33;10.67;;;;;;;;5068922;27;45391;-74
2021/06/24 00:04:02;;;;;;;;;11.00;10.00;;;;;;;;5063550;27;45456;-74
2021/06/24 00:06:27;;;;;;;;;8.75;8.00;;;;;;;;5067868;27;45673;-75
2021/06/24 00:08:53;;;;;;;;;12.00;9.33;;;;;;;;5064687;27;45390;-76
2021/06/24 00:11:18;;;;;;;;;12.33;8.00;;;;;;;;5066522;27;46180;-79
2021/06/24 00:13:44;;;;;;;;;15.50;11.00;;;;;;;;5065049;28;45496;-77
2021/06/24 00:16:09;;;;;;;;;9.25;9.25;;;;;;;;5065785;27;45466;-76
2021/06/24 00:18:35;;;;;;;;;10.33;9.00;;;;;;;;5063365;27;47419;-76
2021/06/24 00:21:00;;;;;;;;;8.25;8.25;;;;;;;;5064783;27;45524;-77
2021/06/24 00:23:26;;;;;;;;;11.50;9.75;;;;;;;;5062505;27;45462;-77
2021/06/24 00:25:51;;;;;;;;;9.25;8.75;;;;;;;;5067698;28;45624;-78
2021/06/24 00:28:16;;;;;;;;;8.00;7.25;;;;;;;;5068209;27;45830;-76
2021/06/24 00:30:43;;;;;;;;;9.50;9.50;;;;;;;;5061661;27;45475;-76
2021/06/24 00:33:08;;;;;;;;;10.75;8.25;;;;;;;;5062738;27;45736;-77
2021/06/24 00:35:33;;;;;;;;;8.75;6.50;;;;;;;;5064365;27;45471;-76
2021/06/24 00:37:58;;;;;;;;;12.33;8.33;;;;;;;;5062194;27;48792;-77
2021/06/24 00:40:24;;;;;;;;;10.33;9.33;;;;;;;;5066897;27;45343;-76
2021/06/24 00:42:50;;;;;;;;;7.00;7.00;;;;;;;;5071537;27;45703;-76
2021/06/24 00:45:15;;;;;;;;;10.25;8.25;;;;;;;;5072796;27;45726;-76
2021/06/24 00:47:41;;;;;;;;;10.75;8.50;;;;;;;;5071975;27;45925;-77
2021/06/24 00:50:08;;;;;;;;;10.75;9.50;;;;;;;;5079310;27;46094;-74
2021/06/24 00:52:33;;;;;;;;;11.75;8.75;;;;;;;;5066738;27;45453;-75
2021/06/24 00:54:58;;;;;;;;;11.00;9.75;;;;;;;;5072258;27;45611;-74
2021/06/24 00:57:24;;;;;;;;;9.75;9.25;;;;;;;;5072370;27;45487;-75
2021/06/24 00:59:49;;;;;;;;;7.50;7.00;;;;;;;;5071188;27;45707;-77
2021/06/24 01:02:15;;;;;;;;;10.33;9.00;;;;;;;;5066405;27;45668;-75
2021/06/24 01:04:40;;;;;;;;;9.25;9.25;;;;;;;;5072424;27;45561;-79
2021/06/24 01:07:05;;;;;;;;;11.00;8.00;;;;;;;;5071130;27;47152;-76
2021/06/24 01:09:32;;;;;;;;;10.00;7.75;;;;;;;;5077008;27;45501;-78
2021/06/24 01:11:57;;;;;;;;;12.00;7.00;;;;;;;;5074517;27;45312;-76
2021/06/24 01:14:23;;;;;;;;;10.00;8.75;;;;;;;;5074632;27;45419;-76
2021/06/24 01:16:48;;;;;;;;;9.50;8.50;;;;;;;;5075319;27;45456;-75
2021/06/24 01:19:17;;;;;;;;;10.25;9.25;;;;;;;;5079338;27;45268;-75
2021/06/24 01:21:42;;;;;;;;;8.50;7.00;;;;;;;;5080930;27;45413;-75
2021/06/24 01:24:07;;;;;;;;;8.33;8.33;;;;;;;;5083278;27;45422;-78
2021/06/24 01:26:33;;;;;;;;;8.00;7.50;;;;;;;;5069813;27;46079;-74
2021/06/24 01:28:58;;;;;;;;;10.25;9.75;;;;;;;;5080331;27;45547;-75
2021/06/24 01:31:23;;;;;;;;;6.00;6.00;;;;;;;;5076624;27;45511;-75
2021/06/24 01:33:49;;;;;;;;;8.67;7.67;;;;;;;;5075070;27;45330;-78
2021/06/24 01:36:14;;;;;;;;;11.75;8.25;;;;;;;;5079099;27;46026;-74
2021/06/24 01:38:42;;;;;;;;;9.75;9.00;;;;;;;;5076835;27;45533;-74
2021/06/24 01:41:10;;;;;;;;;8.75;8.75;;;;;;;;5078762;27;45807;-75
2021/06/24 01:43:35;;;;;;;;;11.25;9.00;;;;;;;;5077151;27;46318;-74
2021/06/24 01:46:00;;;;;;;;;11.67;8.33;;;;;;;;5079784;27;45983;-75
2021/06/24 01:48:26;;;;;;;;;10.33;10.00;;;;;;;;5084429;27;45430;-74
2021/06/24 01:50:57;;;;;;;;;9.00;8.25;;;;;;;;5078399;27;45472;-78
2021/06/24 01:53:22;;;;;;;;;7.25;7.25;;;;;;;;5078077;27;45493;-77
2021/06/24 01:55:48;;;;;;;;;6.50;6.00;;;;;;;;5082342;27;48313;-76
2021/06/24 01:58:17;;;;;;;;;6.00;6.00;;;;;;;;5083820;27;45790;-75
2021/06/24 02:00:46;;;;;;;;;9.00;6.00;;;;;;;;5078009;27;45418;-75
2021/06/24 02:03:12;;;;;;;;;8.75;6.25;;;;;;;;5073500;27;45606;-77
2021/06/24 02:05:37;;;;;;;;;10.00;8.00;;;;;;;;5075433;27;45520;-75
2021/06/24 02:08:03;;;;;;;;;8.50;6.50;;;;;;;;5073978;28;45374;-75
2021/06/24 02:10:28;;;;;;;;;7.25;7.25;;;;;;;;5082980;27;45442;-75
2021/06/24 02:12:53;;;;;;;;;6.50;6.50;;;;;;;;5074048;27;45517;-75
2021/06/24 02:15:18;;;;;;;;;10.67;8.33;;;;;;;;5079946;27;45411;-76
2021/06/24 02:17:44;;;;;;;;;8.25;7.75;;;;;;;;5071996;27;45644;-75
2021/06/24 02:20:12;;;;;;;;;6.75;6.75;;;;;;;;5072583;27;45509;-75
2021/06/24 02:22:39;;;;;;;;;9.50;7.25;;;;;;;;5084460;27;45618;-76
2021/06/24 02:25:05;;;;;;;;;8.25;6.00;;;;;;;;5076094;27;46091;-77
2021/06/24 02:27:30;;;;;;;;;8.50;6.50;;;;;;;;5077931;27;45459;-80
2021/06/24 02:29:55;;;;;;;;;9.00;8.00;;;;;;;;5074609;27;45503;-77
2021/06/24 02:32:21;;;;;;;;;7.25;7.25;;;;;;;;5071683;27;45492;-75
2021/06/24 02:34:47;;;;;;;;;7.67;7.33;;;;;;;;5072962;27;45477;-75
2021/06/24 02:37:12;;;;;;;;;6.25;5.75;;;;;;;;5072084;27;45836;-75
2021/06/24 02:39:37;;;;;;;;;9.25;8.00;;;;;;;;5076887;27;45445;-78
2021/06/24 02:42:03;;;;;;;;;9.00;8.25;;;;;;;;5081029;27;45456;-73
2021/06/24 02:44:28;;;;;;;;;9.25;7.00;;;;;;;;5072769;27;45294;-77
2021/06/24 02:46:53;;;;;;;;;10.00;7.33;;;;;;;;5071415;27;45464;-77
2021/06/24 02:49:19;;;;;;;;;6.67;6.67;;;;;;;;5072383;27;46477;-76
2021/06/24 02:51:46;;;;;;;;;9.67;6.00;;;;;;;;5073105;27;45600;-75
2021/06/24 02:54:12;;;;;;;;;8.00;7.00;;;;;;;;5077087;27;46313;-80
2021/06/24 02:56:40;;;;;;;;;12.00;9.25;;;;;;;;5074413;27;45415;-76
2021/06/24 02:59:06;;;;;;;;;9.00;6.50;;;;;;;;5077623;27;45517;-78
2021/06/24 03:01:31;;;;;;;;;12.25;8.75;;;;;;;;5074219;27;45402;-79
2021/06/24 03:03:56;;;;;;;;;7.75;7.75;;;;;;;;5076943;27;48252;-78
2021/06/24 03:06:22;;;;;;;;;7.50;7.00;;;;;;;;5079168;27;45615;-76
2021/06/24 03:08:47;;;;;;;;;10.75;10.00;;;;;;;;5076589;27;45529;-76
2021/06/24 03:11:14;;;;;;;;;8.00;8.00;;;;;;;;5079347;27;45453;-75
2021/06/24 03:13:39;;;;;;;;;8.75;8.50;;;;;;;;5069583;27;45521;-77
2021/06/24 03:16:05;;;;;;;;;9.50;8.00;;;;;;;;5077339;27;45516;-78
2021/06/24 03:18:30;;;;;;;;;8.50;8.50;;;;;;;;5076043;27;45391;-76
2021/06/24 03:20:55;;;;;;;;;6.33;5.67;;;;;;;;5078489;27;45363;-78
2021/06/24 03:23:21;;;;;;;;;10.00;9.00;;;;;;;;5072607;27;45906;-77
2021/06/24 03:25:47;;;;;;;;;7.00;6.25;;;;;;;;5073685;27;45706;-77
2021/06/24 03:28:12;;;;;;;;;8.00;7.50;;;;;;;;5074349;27;45592;-76
2021/06/24 03:30:37;;;;;;;;;9.33;8.67;;;;;;;;5078073;27;45530;-76
2021/06/24 03:33:03;;;;;;;;;9.33;8.00;;;;;;;;5078654;27;46253;-76
2021/06/24 03:35:28;;;;;;;;;8.75;6.75;;;;;;;;5072435;27;46725;-77
2021/06/24 03:37:53;;;;;;;;;9.00;8.00;;;;;;;;5072379;28;45398;-77
2021/06/24 03:40:19;;;;;;;;;8.67;8.67;;;;;;;;5073072;27;45465;-78
2021/06/24 03:42:44;;;;;;;;;9.25;5.75;;;;;;;;5080726;27;45381;-76
2021/06/24 03:45:10;;;;;;;;;8.50;7.75;;;;;;;;5073466;27;45449;-76
2021/06/24 03:47:35;;;;;;;;;12.50;8.75;;;;;;;;5074262;27;45303;-77
2021/06/24 03:50:00;;;;;;;;;6.33;6.33;;;;;;;;5081780;27;45341;-76
2021/06/24 03:52:25;;;;;;;;;9.00;7.33;;;;;;;;5072145;27;45433;-75
2021/06/24 03:54:51;;;;;;;;;8.67;8.67;;;;;;;;5074581;27;45469;-77
2021/06/24 03:57:16;;;;;;;;;9.33;8.00;;;;;;;;5078743;27;45400;-76
2021/06/24 03:59:41;;;;;;;;;8.00;8.00;;;;;;;;5075866;27;45421;-76
2021/06/24 04:02:06;;;;;;;;;8.33;8.00;;;;;;;;5073049;27;47457;-77
2021/06/24 04:04:32;;;;;;;;;5.75;5.75;;;;;;;;5070323;27;45486;-78
2021/06/24 04:06:57;;;;;;;;;6.00;5.00;;;;;;;;5074680;27;45398;-83
2021/06/24 04:09:22;;;;;;;;;11.33;8.00;;;;;;;;5075747;27;45340;-75
2021/06/24 04:11:47;;;;;;;;;9.00;8.00;;;;;;;;5070750;28;45468;-76
2021/06/24 04:14:13;;;;;;;;;10.50;7.75;;;;;;;;5071930;27;45450;-78
2021/06/24 04:16:38;;;;;;;;;9.00;7.67;;;;;;;;5065841;27;45570;-77
2021/06/24 04:19:03;;;;;;;;;9.00;9.00;;;;;;;;5069780;27;45452;-75
2021/06/24 04:21:29;;;;;;;;;6.75;6.00;;;;;;;;5079780;27;46067;-77
2021/06/24 04:23:54;;;;;;;;;9.00;6.50;;;;;;;;5078135;27;45421;-78
2021/06/24 04:26:19;;;;;;;;;12.33;9.33;;;;;;;;5076493;27;45362;-77
2021/06/24 04:28:44;;;;;;;;;9.00;9.00;;;;;;;;5081783;27;45221;-75
2021/06/24 04:31:10;;;;;;;;;7.67;7.33;;;;;;;;5073714;27;45396;-78
2021/06/24 04:33:35;;;;;;;;;10.67;7.00;;;;;;;;5075405;27;45528;-77
2021/06/24 04:36:01;;;;;;;;;9.00;8.75;;;;;;;;5083657;27;45330;-76
2021/06/24 04:38:26;;;;;;;;;8.00;7.75;;;;;;;;5074806;27;45771;-77
2021/06/24 04:40:51;;;;;;;;;8.50;6.50;;;;;;;;5068945;27;45520;-78
2021/06/24 04:43:17;;;;;;;;;9.50;8.50;;;;;;;;5080670;27;45390;-78
2021/06/24 04:45:42;;;;;;;;;9.25;7.00;;;;;;;;5073863;27;45382;-77
2021/06/24 04:48:08;;;;;;;;;9.33;9.33;;;;;;;;5072067;27;45501;-78
2021/06/24 04:50:36;;;;;;;;;8.75;6.75;;;;;;;;5069429;28;48792;-78
2021/06/24 04:53:02;;;;;;;;;6.50;6.50;;;;;;;;5070723;28;45994;-77
2021/06/24 04:55:27;;;;;;;;;8.25;7.00;;;;;;;;5082013;27;45513;-77
2021/06/24 04:57:52;;;;;;;;;9.00;7.75;;;;;;;;5076478;27;45448;-77
2021/06/24 05:00:18;;;;;;;;;12.00;8.67;;;;;;;;5073882;27;46262;-76
2021/06/24 05:02:43;;;;;;;;;7.50;7.25;;;;;;;;5075266;28;45733;-76
2021/06/24 05:05:08;;;;;;;;;9.33;8.33;;;;;;;;5074348;27;45449;-76
2021/06/24 05:07:34;;;;;;;;;11.50;7.00;;;;;;;;5083488;27;45326;-77
2021/06/24 05:09:59;;;;;;;;;10.50;10.00;;;;;;;;5080346;27;47684;-76
2021/06/24 05:12:26;;;;;;;;;8.67;6.00;;;;;;;;5090539;27;45432;-76
2021/06/24 05:14:52;;;;;;;;;10.00;7.00;;;;;;;;5079453;27;45592;-77
2021/06/24 05:17:17;;;;;;;;;10.75;6.50;;;;;;;;5083780;27;45353;-78
2021/06/24 05:19:43;;;;;;;;;9.50;8.75;;;;;;;;5068399;27;46061;-75
2021/06/24 05:22:09;;;;;;;;;8.75;8.00;;;;;;;;5088949;27;45410;-77
2021/06/24 05:24:34;;;;;;;;;9.25;9.25;;;;;;;;5088811;27;45502;-82
2021/06/24 05:26:59;;;;;;;;;9.00;9.00;;;;;;;;5080382;27;45491;-76
2021/06/24 05:29:25;;;;;;;;;11.67;9.00;;;;;;;;5080379;27;45999;-77
2021/06/24 05:31:50;;;;;;;;;9.75;9.75;;;;;;;;5082168;27;45484;-76
2021/06/24 05:34:16;;;;;;;;;13.67;11.67;;;;;;;;5077412;27;45415;-77
2021/06/24 05:36:41;;;;;;;;;16.25;9.00;;;;;;;;5088890;27;45459;-77
2021/06/24 05:39:06;;;;;;;;;13.67;11.67;;;;;;;;5066248;27;48019;-77
2021/06/24 05:41:32;;;;;;;;;10.00;9.00;;;;;;;;5074125;27;45558;-76
2021/06/24 05:43:57;;;;;;;;;12.25;8.25;;;;;;;;5079515;27;45349;-77
2021/06/24 05:46:22;;;;;;;;;10.25;8.50;;;;;;;;5083556;27;45440;-76
2021/06/24 05:48:51;;;;;;;;;9.67;8.33;;;;;;;;5073551;27;47294;-84
2021/06/24 05:51:17;;;;;;;;;9.75;9.75;;;;;;;;5085076;27;45378;-76
2021/06/24 05:53:42;;;;;;;;;9.00;5.50;;;;;;;;5076802;27;45524;-77
2021/06/24 05:56:07;;;;;;;;;8.67;8.00;;;;;;;;5084297;27;45370;-79
2021/06/24 05:58:33;;;;;;;;;6.33;6.33;;;;;;;;5082612;27;46626;-78
2021/06/24 06:00:59;;;;;;;;;8.00;8.00;;;;;;;;5082140;27;45409;-77
2021/06/24 06:03:24;;;;;;;;;8.50;8.50;;;;;;;;5078981;27;45590;-77
2021/06/24 06:05:50;;;;;;;;;9.25;9.25;;;;;;;;5073562;27;45447;-76
2021/06/24 06:08:16;;;;;;;;;12.75;9.00;;;;;;;;5070304;27;48179;-78
2021/06/24 06:10:41;;;;;;;;;8.75;8.00;;;;;;;;5076431;27;45420;-77
2021/06/24 06:13:07;;;;;;;;;14.50;12.75;;;;;;;;5083007;27;45475;-77
2021/06/24 06:15:33;;;;;;;;;13.75;11.75;;;;;;;;5078487;27;45336;-74
2021/06/24 06:17:59;;;;;;;;;12.50;10.25;;;;;;;;5072181;27;46317;-74
2021/06/24 06:20:24;;;;;;;;;14.67;14.00;;;;;;;;5075716;27;45387;-77
2021/06/24 06:22:50;;;;;;;;;30.00;23.67;;;;;;;;5077861;27;45488;-77
2021/06/24 06:25:15;;;;;;;;;20.75;17.00;;;;;;;;5082773;27;45342;-77
2021/06/24 06:27:41;;;;;;;;;9.50;9.50;;;;;;;;5086273;27;46150;-77
2021/06/24 06:30:06;;;;;;;;;8.50;8.50;;;;;;;;5074170;27;45438;-77
2021/06/24 06:32:32;;;;;;;;;9.25;7.50;;;;;;;;5073980;27;45575;-76
2021/06/24 06:34:57;;;;;;;;;8.33;7.33;;;;;;;;5071414;27;45218;-77
2021/06/24 06:37:22;;;;;;;;;9.00;7.00;;;;;;;;5083518;27;47479;-76
2021/06/24 06:39:47;;;;;;;;;9.00;7.33;;;;;;;;5076185;27;45377;-76
2021/06/24 06:42:12;;;;;;;;;7.67;6.00;;;;;;;;5073567;27;45460;-77
2021/06/24 06:44:38;;;;;;;;;8.33;7.67;;;;;;;;5072387;27;45603;-76
2021/06/24 06:47:03;;;;;;;;;6.75;6.75;;;;;;;;5072718;27;45402;-77
2021/06/24 06:49:28;;;;;;;;;10.33;7.00;;;;;;;;5076342;27;45330;-76
2021/06/24 06:51:53;;;;;;;;;11.00;7.33;;;;;;;;5082018;27;45624;-76
2021/06/24 06:54:19;;;;;;;;;6.33;6.33;;;;;;;;5077912;27;45548;-77
2021/06/24 06:56:47;;;;;;;;;6.50;6.00;;;;;;;;5075764;27;46029;-76
2021/06/24 06:59:13;;;;;;;;;10.00;7.50;;;;;;;;5079476;27;45461;-76
2021/06/24 07:01:39;;;;;;;;;9.25;6.75;;;;;;;;5076048;27;45401;-76
2021/06/24 07:04:04;;;;;;;;;10.50;7.25;;;;;;;;5063587;27;45346;-76
2021/06/24 07:06:30;;;;;;;;;8.25;7.00;;;;;;;;5065699;27;45485;-77
2021/06/24 07:08:56;;;;;;;;;11.00;9.33;;;;;;;;5080548;27;45397;-77
2021/06/24 07:11:21;;;;;;;;;10.50;10.00;;;;;;;;5075944;27;45460;-77
2021/06/24 07:13:46;;;;;;;;;6.33;6.33;;;;;;;;5073556;27;45380;-77
2021/06/24 07:16:11;;;;;;;;;11.00;7.67;;;;;;;;5077464;27;46416;-78
2021/06/24 07:18:36;;;;;;;;;13.33;7.33;;;;;;;;5077939;27;45392;-77
2021/06/24 07:21:03;;;;;;;;;12.00;8.67;;;;;;;;5074197;27;45279;-77
2021/06/24 07:23:28;;;;;;;;;7.50;6.75;;;;;;;;5072366;27;45543;-77
2021/06/24 07:25:54;;;;;;;;;11.00;7.25;;;;;;;;5072231;27;45845;-75
2021/06/24 07:28:19;;;;;;;;;10.50;9.00;;;;;;;;5075297;27;45465;-77
2021/06/24 07:30:44;;;;;;;;;6.33;6.33;;;;;;;;5080028;27;45480;-76
2021/06/24 07:33:09;;;;;;;;;9.25;8.00;;;;;;;;5072181;27;45514;-75
2021/06/24 07:35:35;;;;;;;;;6.67;6.67;;;;;;;;5074887;27;47852;-77
2021/06/24 07:38:00;;;;;;;;;8.00;7.00;;;;;;;;5064675;27;45484;-76
2021/06/24 07:40:25;;;;;;;;;8.33;7.33;;;;;;;;5072140;27;45597;-76
2021/06/24 07:42:51;;;;;;;;;6.33;6.33;;;;;;;;5076962;27;45639;-78
2021/06/24 07:45:16;;;;;;;;;9.00;8.00;;;;;;;;5075941;27;46004;-78
2021/06/24 07:47:41;;;;;;;;;7.00;7.00;;;;;;;;5075535;27;45480;-78
2021/06/24 07:50:07;;;;;;;;;12.33;11.33;;;;;;;;5072544;27;45522;-77
2021/06/24 07:52:32;;;;;;;;;9.25;9.00;;;;;;;;5082263;27;45538;-76
2021/06/24 07:54:58;;;;;;;;;9.00;8.33;;;;;;;;5072818;27;48114;-74
2021/06/24 07:57:23;;;;;;;;;12.25;9.00;;;;;;;;5058378;27;45643;-76
2021/06/24 07:59:48;;;;;;;;;10.00;7.33;;;;;;;;5075479;27;45457;-74
2021/06/24 08:02:14;;;;;;;;;10.75;10.75;;;;;;;;5072067;27;45409;-78
2021/06/24 08:04:39;;;;;;;;;8.50;8.50;;;;;;;;5061533;27;45893;-76
2021/06/24 08:07:04;;;;;;;;;7.50;7.00;;;;;;;;5070941;27;45881;-76
2021/06/24 08:09:30;;;;;;;;;12.00;10.75;;;;;;;;5080491;27;45718;-77
2021/06/24 08:11:55;;;;;;;;;12.00;10.75;;;;;;;;5080020;27;45343;-76
2021/06/24 08:14:21;;;;;;;;;8.50;7.00;;;;;;;;5076963;27;45615;-77
2021/06/24 08:16:47;;;;;;;;;9.00;8.75;;;;;;;;5051420;27;45476;-76
2021/06/24 08:19:12;;;;;;;;;7.25;7.25;;;;;;;;5069280;27;45471;-76
2021/06/24 08:21:37;;;;;;;;;9.67;7.67;;;;;;;;5077406;27;47065;-76
2021/06/24 08:24:03;;;;;;;;;10.50;8.25;;;;;;;;5092335;27;46224;-75
2021/06/24 08:26:28;;;;;;;;;9.25;8.25;;;;;;;;5075056;27;45452;-75
2021/06/24 08:28:54;;;;;;;;;9.00;7.00;;;;;;;;5069836;27;45308;-75
2021/06/24 08:31:19;;;;;;;;;7.25;7.25;;;;;;;;5079178;27;45482;-75
2021/06/24 08:33:44;;;;;;;;;10.33;7.00;;;;;;;;5079880;27;45653;-75
2021/06/24 08:36:09;;;;;;;;;10.75;7.50;;;;;;;;5075096;27;45479;-76
2021/06/24 08:38:35;;;;;;;;;9.50;8.25;;;;;;;;5076011;27;45525;-76
2021/06/24 08:41:00;;;;;;;;;10.00;8.00;;;;;;;;5060938;27;45576;-77
2021/06/24 08:43:26;;;;;;;;;10.33;7.33;;;;;;;;5073980;27;47430;-74
2021/06/24 08:45:56;;;;;;;;;9.00;6.75;;;;;;;;5073728;27;45672;-74
2021/06/24 08:48:25;;;;;;;;;7.75;5.25;;;;;;;;5078952;27;45587;-77
2021/06/24 08:50:50;;;;;;;;;10.00;7.00;;;;;;;;5076756;27;45402;-77
2021/06/24 08:53:19;;;;;;;;;8.50;6.50;;;;;;;;5075318;27;46299;-77
2021/06/24 08:55:46;;;;;;;;;10.25;7.75;;;;;;;;5073287;27;45678;-78
2021/06/24 08:58:12;;;;;;;;;10.75;6.75;;;;;;;;5083558;27;45703;-77
2021/06/24 09:00:37;;;;;;;;;11.00;8.50;;;;;;;;5087044;27;45405;-77
2021/06/24 09:03:18;;;;;;;;;8.33;6.00;;;;;;;;5078082;27;45976;-77
2021/06/24 09:05:47;;;;;;;;;6.75;6.00;;;;;;;;5076567;27;45828;-77
2021/06/24 09:08:12;;;;;;;;;5.50;5.50;;;;;;;;5081031;27;45420;-77
2021/06/24 09:10:37;;;;;;;;;4.67;4.67;;;;;;;;5080496;27;45587;-77
2021/06/24 09:13:04;;;;;;;;;7.67;6.00;;;;;;;;5081629;27;48394;-77
2021/06/24 09:15:38;;;;;;;;;7.00;7.00;;;;;;;;5086021;27;45503;-77
2021/06/24 09:18:04;;;;;;;;;10.50;8.25;;;;;;;;5081321;27;45691;-77
2021/06/24 09:20:33;;;;;;;;;5.75;5.75;;;;;;;;5079119;27;45604;-77
2021/06/24 09:23:05;;;;;;;;;6.00;6.00;;;;;;;;5082241;27;48339;-78
2021/06/24 09:25:30;;;;;;;;;6.75;5.00;;;;;;;;5080198;27;45543;-77
2021/06/24 09:27:55;;;;;;;;;23.33;21.33;;;;;;;;5085731;27;45483;-75
2021/06/24 09:30:28;;;;;;;;;36.67;29.33;;;;;;;;5079724;27;45513;-79
2021/06/24 09:32:53;;;;;;;;;13.50;12.75;;;;;;;;5098516;27;48193;-79
2021/06/24 09:35:27;;;;;;;;;10.00;7.75;;;;;;;;5074701;27;45355;-77
2021/06/24 09:38:08;;;;;;;;;9.00;5.25;;;;;;;;5073857;27;45581;-75
2021/06/24 09:40:39;;;;;;;;;8.50;6.25;;;;;;;;5074303;27;45369;-78
2021/06/24 09:43:04;;;;;;;;;7.75;5.75;;;;;;;;5077071;27;45669;-78
2021/06/24 09:45:30;;;;;;;;;9.00;7.75;;;;;;;;5086292;27;45612;-78
2021/06/24 09:48:08;;;;;;;;;7.00;5.00;;;;;;;;5078953;27;45379;-79
2021/06/24 09:50:33;;;;;;;;;7.00;7.00;;;;;;;;5078383;27;45744;-79
2021/06/24 09:53:09;;;;;;;;;7.75;6.00;;;;;;;;5073156;27;47257;-79
2021/06/24 09:55:34;;;;;;;;;8.00;7.00;;;;;;;;5075136;27;45401;-77
2021/06/24 09:58:12;;;;;;;;;10.75;6.25;;;;;;;;5083528;27;45591;-76
2021/06/24 10:00:47;;;;;;;;;8.50;7.00;;;;;;;;5064471;27;47261;-75
2021/06/24 10:03:12;;;;;;;;;7.75;6.50;;;;;;;;5059619;27;45584;-75
2021/06/24 10:05:40;;;;;;;;;8.25;6.75;;;;;;;;5069878;27;45506;-75
2021/06/24 10:08:05;;;;;;;;;8.00;7.00;;;;;;;;5072828;27;45481;-79
2021/06/24 10:10:31;;;;;;;;;8.00;7.00;;;;;;;;5077460;27;45471;-75
2021/06/24 10:12:56;;;;;;;;;6.00;6.00;;;;;;;;5087540;27;45924;-74
2021/06/24 10:15:23;;;;;;;;;8.00;8.00;;;;;;;;5077414;27;45355;-74
2021/06/24 10:17:48;;;;;;;;;15.00;13.25;;;;;;;;5077465;27;45531;-75
2021/06/24 10:20:14;;;;;;;;;15.50;15.00;;;;;;;;5078333;27;45462;-74
2021/06/24 10:22:40;;;;;;;;;14.00;12.00;;;;;;;;5083584;27;46140;-74
2021/06/24 10:25:11;;;;;;;;;11.00;8.50;;;;;;;;5076249;27;45476;-75
2021/06/24 10:27:37;;;;;;;;;11.25;10.25;;;;;;;;5079890;27;45500;-74
2021/06/24 10:30:10;;;;;;;;;8.00;7.50;;;;;;;;5077906;27;45564;-75
2021/06/24 10:32:36;;;;;;;;;7.00;7.00;;;;;;;;5074932;27;46266;-74
2021/06/24 10:35:03;;;;;;;;;6.50;5.25;;;;;;;;5081201;27;45518;-73
2021/06/24 10:37:29;;;;;;;;;8.75;7.00;;;;;;;;5083519;27;45465;-74
2021/06/24 10:39:56;;;;;;;;;8.00;7.50;;;;;;;;5082005;27;45337;-76
2021/06/24 10:42:22;;;;;;;;;11.50;7.00;;;;;;;;5084520;27;45571;-74
2021/06/24 10:44:51;;;;;;;;;9.00;7.25;;;;;;;;5074958;27;45712;-76
2021/06/24 10:47:31;;;;;;;;;11.25;6.25;;;;;;;;5070110;27;45501;-76
2021/06/24 10:50:15;;;;;;;;;7.00;7.00;;;;;;;;5068941;27;45436;-75
2021/06/24 10:52:40;;;;;;;;;8.00;8.00;;;;;;;;5081300;27;45587;-76
2021/06/24 10:55:26;;;;;;;;;9.00;8.00;;;;;;;;5082191;27;45470;-76
2021/06/24 10:57:52;;;;;;;;;7.00;5.50;;;;;;;;5067427;27;45469;-76
2021/06/24 11:00:36;;;;;;;;;8.75;7.25;;;;;;;;5081702;27;45543;-76
2021/06/24 11:03:06;;;;;;;;;8.00;6.25;;;;;;;;5077189;27;46062;-74
2021/06/24 11:05:43;;;;;;;;;11.25;7.50;;;;;;;;5073037;27;46204;-74
2021/06/24 11:08:08;;;;;;;;;10.25;8.00;;;;;;;;5079141;27;45377;-75
2021/06/24 11:10:49;;;;;;;;;7.75;7.75;;;;;;;;5082141;27;45351;-79
2021/06/24 11:13:16;;;;;;;;;41.25;29.50;;;;;;;;5059374;27;45520;-75
2021/06/24 11:15:44;;;;;;;;;57.75;39.25;;;;;;;;5083938;27;45837;-76
2021/06/24 11:18:09;;;;;;;;;23.75;18.25;;;;;;;;5058036;27;45503;-76
2021/06/24 11:20:42;;;;;;;;;26.75;18.25;;;;;;;;5071792;27;45537;-78
2021/06/24 11:23:25;;;;;;;;;60.00;46.25;;;;;;;;5071907;27;45587;-78
2021/06/24 11:26:10;;;;;;;;;36.50;30.25;;;;;;;;5068758;28;45411;-76
2021/06/24 11:28:59;;;;;;;;;18.00;15.25;;;;;;;;5083293;27;45502;-76
2021/06/24 11:31:42;;;;;;;;;23.00;14.00;;;;;;;;5078673;27;45403;-75
2021/06/24 11:36:34;;;;;;;;;8.25;7.00;;;;;;;;5080946;27;45630;-74
2021/06/24 11:38:59;;;;;;;;;7.75;7.00;;;;;;;;5076910;27;45282;-75
2021/06/24 11:41:24;;;;;;;;;6.75;6.75;;;;;;;;5076296;27;45464;-75
2021/06/24 11:44:00;;;;;;;;;5.50;5.50;;;;;;;;5081472;27;48226;-75
2021/06/24 11:46:26;;;;;;;;;10.25;5.00;;;;;;;;5073589;27;45597;-75
2021/06/24 12:05:07;;;;;;;;;3.75;3.00;;;;;;;;5074668;27;46171;-76
2021/06/24 12:07:33;;;;;;;;;4.00;4.00;;;;;;;;5082901;27;45742;-76
2021/06/24 12:09:59;;;;;;;;;4.00;4.00;;;;;;;;5082773;27;45417;-75
2021/06/24 12:12:26;;;;;;;;;4.50;4.50;;;;;;;;5085040;27;45248;-74
2021/06/24 12:14:53;;;;;;;;;7.00;6.00;;;;;;;;5073354;27;45496;-76
2021/06/24 12:17:23;;;;;;;;;4.00;4.00;;;;;;;;5071945;27;45868;-75
2021/06/24 12:20:01;;;;;;;;;9.75;5.75;;;;;;;;5082597;27;45430;-76
2021/06/24 12:22:33;;;;;;;;;5.00;3.25;;;;;;;;5072698;27;47192;-75
2021/06/24 12:24:59;;;;;;;;;6.00;6.00;;;;;;;;5072672;27;45540;-75
2021/06/24 12:27:25;;;;;;;;;5.25;5.25;;;;;;;;5076985;27;45820;-75
2021/06/24 12:29:51;;;;;;;;;6.00;5.00;;;;;;;;5069735;27;45342;-74
2021/06/24 12:32:17;;;;;;;;;5.75;5.50;;;;;;;;5069077;27;45656;-75
2021/06/24 12:34:43;;;;;;;;;4.50;4.50;;;;;;;;5065758;27;45492;-75
2021/06/24 12:37:08;;;;;;;;;4.50;4.50;;;;;;;;5069134;27;45477;-75
2021/06/24 12:39:34;;;;;;;;;6.00;4.50;;;;;;;;5066184;27;45496;-75
2021/06/24 12:42:02;;;;;;;;;6.50;4.00;;;;;;;;5075031;27;45394;-76
2021/06/24 12:44:27;;;;;;;;;5.50;5.00;;;;;;;;5066216;27;48615;-76
2021/06/24 12:46:52;;;;;;;;;5.33;5.33;;;;;;;;5048741;27;45516;-75
2021/06/24 12:49:18;;;;;;;;;5.67;5.67;;;;;;;;5069817;27;45697;-75
2021/06/24 12:51:44;;;;;;;;;6.75;6.75;;;;;;;;5070019;27;45585;-75
2021/06/24 12:54:16;;;;;;;;;5.75;5.75;;;;;;;;5071411;27;47493;-76
2021/06/24 12:56:45;;;;;;;;;6.25;6.00;;;;;;;;5068269;27;45536;-74
2021/06/24 12:59:10;;;;;;;;;5.75;5.75;;;;;;;;5077029;27;54675;-74
2021/06/24 13:01:36;;;;;;;;;5.50;5.50;;;;;;;;5068076;27;45663;-74
2021/06/24 13:04:08;;;;;;;;;5.00;5.00;;;;;;;;5062776;27;46357;-74
2021/06/24 13:06:39;;;;;;;;;8.25;6.00;;;;;;;;5061297;27;46595;-74
2021/06/24 13:09:05;;;;;;;;;4.75;4.75;;;;;;;;5073460;27;45574;-74
2021/06/24 13:11:35;;;;;;;;;5.50;4.75;;;;;;;;5071330;27;56017;-74
2021/06/24 13:14:02;;;;;;;;;5.50;5.50;;;;;;;;5065259;27;46133;-77
2021/06/24 13:16:29;;;;;;;;;6.00;6.00;;;;;;;;5078572;27;45661;-76
2021/06/24 13:18:55;;;;;;;;;5.00;5.00;;;;;;;;5076725;27;45556;-76
2021/06/24 13:21:21;;;;;;;;;3.50;3.50;;;;;;;;5084792;27;45560;-75
2021/06/24 13:23:46;;;;;;;;;5.00;5.00;;;;;;;;5072239;27;45476;-75
2021/06/24 13:26:13;;;;;;;;;6.75;4.25;;;;;;;;5058628;27;45523;-75
2021/06/24 13:28:38;;;;;;;;;5.00;5.00;;;;;;;;5074565;27;45503;-75
2021/06/24 13:31:05;;;;;;;;;4.75;4.00;;;;;;;;5076746;27;45498;-75
2021/06/24 13:33:34;;;;;;;;;5.00;4.25;;;;;;;;5075161;27;45537;-74
2021/06/24 13:36:00;;;;;;;;;5.50;5.50;;;;;;;;5071593;27;45731;-75
2021/06/24 13:38:25;;;;;;;;;3.33;3.00;;;;;;;;5074049;27;45844;-75
2021/06/24 13:40:51;;;;;;;;;3.00;2.33;;;;;;;;5079728;27;45515;-74
2021/06/24 13:43:19;;;;;;;;;9.50;8.75;;;;;;;;5068912;27;45453;-75
2021/06/24 13:45:47;;;;;;;;;8.00;8.00;;;;;;;;5078608;27;45964;-75
2021/06/24 13:48:13;;;;;;;;;12.50;9.75;;;;;;;;5079331;27;45578;-75
2021/06/24 13:50:38;;;;;;;;;6.25;6.25;;;;;;;;5072392;27;45497;-75
2021/06/24 13:53:14;;;;;;;;;5.75;5.75;;;;;;;;5074767;27;46053;-74
2021/06/24 13:55:39;;;;;;;;;4.00;3.50;;;;;;;;5081290;27;45574;-75
2021/06/24 13:58:05;;;;;;;;;4.50;4.50;;;;;;;;5079076;27;45454;-74
2021/06/24 14:00:33;;;;;;;;;5.25;4.75;;;;;;;;5081973;27;45342;-75
2021/06/24 14:02:59;;;;;;;;;6.00;6.00;;;;;;;;5071139;27;45295;-75
2021/06/24 14:05:24;;;;;;;;;4.75;2.75;;;;;;;;5070966;27;45631;-74
2021/06/24 14:07:49;;;;;;;;;25.33;24.00;;;;;;;;5071819;27;45451;-75
2021/06/24 14:10:14;;;;;;;;;5.67;5.67;;;;;;;;5072374;27;45564;-76
2021/06/24 14:12:40;;;;;;;;;4.25;4.00;;;;;;;;5071033;27;46591;-75
2021/06/24 14:15:05;;;;;;;;;5.25;4.50;;;;;;;;5074334;27;45525;-75
2021/06/24 14:17:31;;;;;;;;;3.00;3.00;;;;;;;;5072790;27;45354;-75
2021/06/24 14:19:56;;;;;;;;;6.00;4.00;;;;;;;;5074259;27;45440;-75
2021/06/24 14:22:21;;;;;;;;;3.00;3.00;;;;;;;;5081777;27;45468;-74
2021/06/24 14:24:46;;;;;;;;;2.67;2.67;;;;;;;;5074542;27;45813;-75
2021/06/24 14:27:12;;;;;;;;;3.67;3.33;;;;;;;;5067809;27;45793;-74
2021/06/24 14:29:38;;;;;;;;;3.25;3.00;;;;;;;;5074120;27;45733;-74
2021/06/24 14:32:03;;;;;;;;;4.00;2.25;;;;;;;;5058898;27;45693;-74
2021/06/24 14:34:28;;;;;;;;;2.00;2.00;;;;;;;;5072449;27;45426;-74
2021/06/24 14:36:54;;;;;;;;;5.00;2.00;;;;;;;;5067829;27;45426;-74
2021/06/24 14:39:20;;;;;;;;;2.00;2.00;;;;;;;;5077560;27;45473;-75
2021/06/24 14:41:45;;;;;;;;;3.00;3.00;;;;;;;;5071350;27;45568;-74
2021/06/24 14:44:11;;;;;;;;;3.00;3.00;;;;;;;;5067284;27;45457;-75
2021/06/24 14:46:36;;;;;;;;;3.00;3.00;;;;;;;;5079099;27;45536;-74
2021/06/24 14:49:02;;;;;;;;;1.25;1.25;;;;;;;;5074700;27;45431;-74
2021/06/24 14:51:27;;;;;;;;;1.25;1.25;;;;;;;;5070539;27;45922;-74
2021/06/24 14:53:53;;;;;;;;;3.00;2.50;;;;;;;;5074714;27;45543;-74